sensor_id;sensor_type;location;lat;lon;timestamp;pressure;altitude;pressure_sealevel;temperature;humidity
20105;BME280;10212;42.714;23.310;2023-07-09T00:01:51;95608.63;;;18.24;65.68
20105;BME280;10212;42.714;23.310;2023-07-09T00:11:52;95594.09;;;18.10;68.07
20105;BME280;10212;42.714;23.310;2023-07-09T00:21:52;95591.13;;;18.06;68.12
20105;BME280;10212;42.714;23.310;2023-07-09T00:31:55;95593.28;;;17.92;67.73
20105;BME280;10212;42.714;23.310;2023-07-09T00:41:56;95584.25;;;17.88;67.11
20105;BME280;10212;42.714;23.310;2023-07-09T00:52:00;95575.47;;;17.99;68.83
20105;BME280;10212;42.714;23.310;2023-07-09T01:02:02;95573.78;;;17.64;70.22
20105;BME280;10212;42.714;23.310;2023-07-09T01:12:07;95574.81;;;17.33;71.93
20105;BME280;10212;42.714;23.310;2023-07-09T01:22:09;95567.09;;;17.15;71.88
20105;BME280;10212;42.714;23.310;2023-07-09T01:32:13;95556.78;;;17.01;73.31
20105;BME280;10212;42.714;23.310;2023-07-09T01:42:14;95562.19;;;16.82;73.68
20105;BME280;10212;42.714;23.310;2023-07-09T01:52:15;95583.38;;;16.63;74.69
20105;BME280;10212;42.714;23.310;2023-07-09T02:02:19;95590.47;;;16.51;74.04
20105;BME280;10212;42.714;23.310;2023-07-09T02:12:19;95599.47;;;16.19;79.49
20105;BME280;10212;42.714;23.310;2023-07-09T02:22:20;95585.31;;;15.89;81.73
20105;BME280;10212;42.714;23.310;2023-07-09T02:32:22;95591.81;;;15.56;84.16
20105;BME280;10212;42.714;23.310;2023-07-09T02:42:23;95602.34;;;15.56;85.54
20105;BME280;10212;42.714;23.310;2023-07-09T02:52:24;95615.47;;;15.37;82.66
20105;BME280;10212;42.714;23.310;2023-07-09T03:02:24;95632.25;;;14.99;84.68
20105;BME280;10212;42.714;23.310;2023-07-09T03:12:25;95644.72;;;14.85;84.10
20105;BME280;10212;42.714;23.310;2023-07-09T03:22:25;95644.94;;;14.83;86.56
20105;BME280;10212;42.714;23.310;2023-07-09T03:32:26;95638.31;;;14.99;82.90
20105;BME280;10212;42.714;23.310;2023-07-09T03:42:26;95639.84;;;15.07;81.63
20105;BME280;10212;42.714;23.310;2023-07-09T03:52:27;95642.94;;;15.41;80.22
20105;BME280;10212;42.714;23.310;2023-07-09T04:02:27;95647.00;;;15.56;79.36
20105;BME280;10212;42.714;23.310;2023-07-09T04:12:28;95655.03;;;15.61;78.64
20105;BME280;10212;42.714;23.310;2023-07-09T04:22:28;95677.53;;;15.76;79.15
20105;BME280;10212;42.714;23.310;2023-07-09T04:32:29;95669.47;;;15.89;79.55
20105;BME280;10212;42.714;23.310;2023-07-09T04:42:29;95676.81;;;16.18;78.52
20105;BME280;10212;42.714;23.310;2023-07-09T04:52:30;95676.25;;;16.28;81.12
20105;BME280;10212;42.714;23.310;2023-07-09T05:02:31;95674.47;;;16.64;77.71
20105;BME280;10212;42.714;23.310;2023-07-09T05:12:32;95682.44;;;17.13;76.08
20105;BME280;10212;42.714;23.310;2023-07-09T05:22:33;95679.75;;;17.60;75.31
20105;BME280;10212;42.714;23.310;2023-07-09T05:32:37;95687.97;;;17.76;74.45
20105;BME280;10212;42.714;23.310;2023-07-09T05:42:37;95680.06;;;18.05;74.83
20105;BME280;10212;42.714;23.310;2023-07-09T05:52:38;95674.06;;;18.10;75.42
20105;BME280;10212;42.714;23.310;2023-07-09T06:02:39;95673.28;;;18.56;73.10
20105;BME280;10212;42.714;23.310;2023-07-09T06:12:46;95679.94;;;18.93;69.87
20105;BME280;10212;42.714;23.310;2023-07-09T06:22:46;95665.91;;;19.10;68.46
20105;BME280;10212;42.714;23.310;2023-07-09T06:32:46;95665.56;;;19.23;67.16
20105;BME280;10212;42.714;23.310;2023-07-09T06:42:47;95669.66;;;19.54;65.32
20105;BME280;10212;42.714;23.310;2023-07-09T06:52:48;95666.03;;;19.82;65.33
20105;BME280;10212;42.714;23.310;2023-07-09T07:02:48;95662.88;;;20.08;62.32
20105;BME280;10212;42.714;23.310;2023-07-09T07:12:49;95658.78;;;20.22;62.92
20105;BME280;10212;42.714;23.310;2023-07-09T07:22:49;95660.66;;;20.55;58.36
20105;BME280;10212;42.714;23.310;2023-07-09T07:32:50;95650.13;;;20.65;59.15
20105;BME280;10212;42.714;23.310;2023-07-09T07:42:50;95641.72;;;20.73;58.25
20105;BME280;10212;42.714;23.310;2023-07-09T07:52:51;95641.78;;;20.84;56.88
20105;BME280;10212;42.714;23.310;2023-07-09T08:02:51;95630.94;;;21.29;56.00
20105;BME280;10212;42.714;23.310;2023-07-09T08:12:52;95632.06;;;21.43;52.69
20105;BME280;10212;42.714;23.310;2023-07-09T08:22:56;95624.72;;;21.66;53.60
20105;BME280;10212;42.714;23.310;2023-07-09T08:32:57;95620.72;;;21.74;55.33
20105;BME280;10212;42.714;23.310;2023-07-09T08:43:08;95622.41;;;21.91;55.51
20105;BME280;10212;42.714;23.310;2023-07-09T08:53:28;95611.28;;;22.31;54.76
20105;BME280;10212;42.714;23.310;2023-07-09T09:03:46;95619.78;;;22.38;53.86
20105;BME280;10212;42.714;23.310;2023-07-09T09:13:50;95612.59;;;22.59;54.48
20105;BME280;10212;42.714;23.310;2023-07-09T09:23:57;95616.31;;;22.89;52.90
20105;BME280;10212;42.714;23.310;2023-07-09T09:33:59;95605.88;;;23.14;51.63
20105;BME280;10212;42.714;23.310;2023-07-09T09:43:59;95604.53;;;23.27;51.18
20105;BME280;10212;42.714;23.310;2023-07-09T09:54:01;95601.13;;;23.11;50.86
20105;BME280;10212;42.714;23.310;2023-07-09T10:04:03;95598.59;;;23.46;49.27
20105;BME280;10212;42.714;23.310;2023-07-09T10:24:39;95584.84;;;23.84;47.18
20105;BME280;10212;42.714;23.310;2023-07-09T10:34:57;95581.28;;;23.99;46.19
20105;BME280;10212;42.714;23.310;2023-07-09T10:45:13;95571.25;;;24.26;44.78
20105;BME280;10212;42.714;23.310;2023-07-09T10:55:57;95570.19;;;24.27;43.98
20105;BME280;10212;42.714;23.310;2023-07-09T11:06:00;95563.88;;;24.47;44.99
20105;BME280;10212;42.714;23.310;2023-07-09T11:16:02;95564.25;;;24.89;43.42
20105;BME280;10212;42.714;23.310;2023-07-09T11:36:28;95557.47;;;25.27;42.87
20105;BME280;10212;42.714;23.310;2023-07-09T11:46:29;95545.31;;;25.59;42.97
20105;BME280;10212;42.714;23.310;2023-07-09T11:56:29;95536.72;;;25.82;42.51
20105;BME280;10212;42.714;23.310;2023-07-09T12:06:32;95533.03;;;25.77;41.78
20105;BME280;10212;42.714;23.310;2023-07-09T12:16:38;95533.59;;;26.60;41.11
20105;BME280;10212;42.714;23.310;2023-07-09T12:26:38;95529.34;;;26.73;40.56
20105;BME280;10212;42.714;23.310;2023-07-09T12:36:41;95528.56;;;27.15;39.00
20105;BME280;10212;42.714;23.310;2023-07-09T12:46:44;95513.28;;;27.30;39.36
20105;BME280;10212;42.714;23.310;2023-07-09T12:56:46;95505.41;;;27.48;39.14
20105;BME280;10212;42.714;23.310;2023-07-09T13:06:53;95517.91;;;27.38;38.39
20105;BME280;10212;42.714;23.310;2023-07-09T13:17:09;95507.59;;;27.68;39.01
20105;BME280;10212;42.714;23.310;2023-07-09T13:27:14;95517.06;;;27.29;39.76
20105;BME280;10212;42.714;23.310;2023-07-09T13:37:16;95517.91;;;27.38;38.83
20105;BME280;10212;42.714;23.310;2023-07-09T13:47:18;95521.22;;;27.21;40.13
20105;BME280;10212;42.714;23.310;2023-07-09T13:57:21;95515.84;;;27.72;39.92
20105;BME280;10212;42.714;23.310;2023-07-09T14:07:41;95527.47;;;26.88;40.71
20105;BME280;10212;42.714;23.310;2023-07-09T14:17:42;95527.56;;;27.25;39.59
20105;BME280;10212;42.714;23.310;2023-07-09T14:27:43;95533.09;;;27.43;38.90
20105;BME280;10212;42.714;23.310;2023-07-09T14:37:45;95524.00;;;27.16;38.56
20105;BME280;10212;42.714;23.310;2023-07-09T14:47:46;95520.72;;;26.77;38.11
20105;BME280;10212;42.714;23.310;2023-07-09T14:57:47;95523.09;;;26.78;38.18
20105;BME280;10212;42.714;23.310;2023-07-09T15:07:48;95528.75;;;26.77;38.63
20105;BME280;10212;42.714;23.310;2023-07-09T15:17:49;95526.69;;;26.73;39.50
20105;BME280;10212;42.714;23.310;2023-07-09T15:27:50;95531.09;;;26.50;40.87
20105;BME280;10212;42.714;23.310;2023-07-09T15:37:51;95542.34;;;26.33;41.86
20105;BME280;10212;42.714;23.310;2023-07-09T15:47:52;95548.84;;;25.74;44.82
20105;BME280;10212;42.714;23.310;2023-07-09T15:57:54;95556.38;;;25.47;46.10
20105;BME280;10212;42.714;23.310;2023-07-09T16:07:58;95560.00;;;25.57;46.16
20105;BME280;10212;42.714;23.310;2023-07-09T16:18:00;95560.78;;;25.19;47.18
20105;BME280;10212;42.714;23.310;2023-07-09T16:28:02;95567.91;;;24.74;47.97
20105;BME280;10212;42.714;23.310;2023-07-09T16:38:02;95563.31;;;24.50;48.55
20105;BME280;10212;42.714;23.310;2023-07-09T16:48:04;95569.78;;;24.44;49.31
20105;BME280;10212;42.714;23.310;2023-07-09T16:58:27;95576.63;;;24.50;49.21
20105;BME280;10212;42.714;23.310;2023-07-09T17:08:28;95583.16;;;24.39;50.21
20105;BME280;10212;42.714;23.310;2023-07-09T17:18:32;95588.09;;;24.21;51.39
20105;BME280;10212;42.714;23.310;2023-07-09T17:28:32;95591.38;;;24.02;52.66
20105;BME280;10212;42.714;23.310;2023-07-09T17:38:35;95594.44;;;23.80;53.83
20105;BME280;10212;42.714;23.310;2023-07-09T17:48:36;95600.44;;;23.56;54.43
20105;BME280;10212;42.714;23.310;2023-07-09T17:58:38;95607.19;;;23.22;55.30
20105;BME280;10212;42.714;23.310;2023-07-09T18:08:39;95610.44;;;23.13;55.59
20105;BME280;10212;42.714;23.310;2023-07-09T18:18:40;95623.50;;;22.89;56.33
20105;BME280;10212;42.714;23.310;2023-07-09T18:28:43;95633.38;;;22.78;56.14
20105;BME280;10212;42.714;23.310;2023-07-09T18:38:44;95637.59;;;22.58;56.80
20105;BME280;10212;42.714;23.310;2023-07-09T18:48:45;95655.66;;;22.46;57.41
20105;BME280;10212;42.714;23.310;2023-07-09T18:58:45;95664.16;;;22.37;57.26
20105;BME280;10212;42.714;23.310;2023-07-09T19:08:46;95665.44;;;22.09;60.40
20105;BME280;10212;42.714;23.310;2023-07-09T19:18:46;95675.66;;;21.68;63.31
20105;BME280;10212;42.714;23.310;2023-07-09T19:28:47;95676.06;;;21.39;65.94
20105;BME280;10212;42.714;23.310;2023-07-09T19:38:48;95684.44;;;21.15;66.02
20105;BME280;10212;42.714;23.310;2023-07-09T19:48:49;95693.88;;;21.01;65.96
20105;BME280;10212;42.714;23.310;2023-07-09T19:58:50;95703.75;;;20.78;67.76
20105;BME280;10212;42.714;23.310;2023-07-09T20:08:50;95688.19;;;20.87;63.76
20105;BME280;10212;42.714;23.310;2023-07-09T20:18:52;95696.78;;;20.71;65.46
20105;BME280;10212;42.714;23.310;2023-07-09T20:28:53;95705.53;;;20.39;68.12
20105;BME280;10212;42.714;23.310;2023-07-09T20:38:54;95708.78;;;19.96;70.74
20105;BME280;10212;42.714;23.310;2023-07-09T20:48:54;95713.22;;;19.68;71.26
20105;BME280;10212;42.714;23.310;2023-07-09T20:58:55;95708.09;;;19.39;71.69
20105;BME280;10212;42.714;23.310;2023-07-09T21:08:56;95702.09;;;19.26;72.39
20105;BME280;10212;42.714;23.310;2023-07-09T21:18:56;95719.56;;;18.93;73.55
20105;BME280;10212;42.714;23.310;2023-07-09T21:28:57;95715.41;;;18.80;74.53
20105;BME280;10212;42.714;23.310;2023-07-09T21:38:57;95714.94;;;18.66;74.34
20105;BME280;10212;42.714;23.310;2023-07-09T21:48:58;95706.91;;;18.61;73.33
20105;BME280;10212;42.714;23.310;2023-07-09T21:58:58;95710.09;;;18.46;73.83
20105;BME280;10212;42.714;23.310;2023-07-09T22:08:59;95713.53;;;18.46;73.94
20105;BME280;10212;42.714;23.310;2023-07-09T22:18:59;95713.06;;;18.49;73.27
20105;BME280;10212;42.714;23.310;2023-07-09T22:28:59;95708.44;;;18.27;73.58
20105;BME280;10212;42.714;23.310;2023-07-09T22:39:00;95719.41;;;18.07;74.75
20105;BME280;10212;42.714;23.310;2023-07-09T22:49:01;95703.59;;;18.07;74.84
20105;BME280;10212;42.714;23.310;2023-07-09T22:59:01;95699.19;;;18.25;71.93
20105;BME280;10212;42.714;23.310;2023-07-09T23:09:01;95691.59;;;18.28;73.60
20105;BME280;10212;42.714;23.310;2023-07-09T23:19:16;95695.44;;;18.08;74.58
20105;BME280;10212;42.714;23.310;2023-07-09T23:29:17;95699.94;;;17.67;76.63
20105;BME280;10212;42.714;23.310;2023-07-09T23:39:18;95687.84;;;17.71;76.32
20105;BME280;10212;42.714;23.310;2023-07-09T23:49:28;95689.56;;;17.77;74.13
20105;BME280;10212;42.714;23.310;2023-07-09T23:59:31;95697.75;;;17.52;76.65
